Time;durP1;ratioP1;P1;durP2;ratioP2;P2;SDS_P1;SDS_P2;PMS_P1;PMS_P2;Temp;Humidity;BMP_temperature;BMP_pressure;BME280_temperature;BME280_humidity;BME280_pressure;Samples;Min_cycle;Max_cycle;Signal;HPM_P1;HPM_P2
2021/05/12 00:02:20;;;;;;;3.07;2.10;;;12.40;99.90;;;;;;5114434;28;20206;-75
2021/05/12 00:04:46;;;;;;;3.63;2.03;;;12.40;99.90;;;;;;5098176;28;20214;-76
2021/05/12 00:07:12;;;;;;;3.00;2.00;;;12.40;99.90;;;;;;5118371;28;20194;-77
2021/05/12 00:09:38;;;;;;;4.33;2.20;;;12.40;99.90;;;;;;5119529;28;20202;-77
2021/05/12 00:12:04;;;;;;;3.57;1.90;;;12.40;99.90;;;;;;5100055;28;20611;-75
2021/05/12 00:14:32;;;;;;;3.00;1.63;;;12.40;99.90;;;;;;5113827;28;20213;-75
2021/05/12 00:17:00;;;;;;;3.90;2.07;;;12.40;99.90;;;;;;5103522;28;20451;-76
2021/05/12 00:19:27;;;;;;;3.47;2.23;;;12.30;99.90;;;;;;5111256;28;20431;-76
2021/05/12 00:22:02;;;;;;;4.33;2.40;;;12.30;99.90;;;;;;5092358;28;20469;-73
2021/05/12 00:24:28;;;;;;;4.27;2.40;;;12.30;99.90;;;;;;5103753;28;20462;-76
2021/05/12 00:26:53;;;;;;;3.43;2.27;;;12.30;99.90;;;;;;5112234;28;20519;-78
2021/05/12 00:29:19;;;;;;;3.03;1.83;;;12.30;99.90;;;;;;5113170;28;20190;-75
2021/05/12 00:31:45;;;;;;;3.17;2.57;;;12.30;99.90;;;;;;5113231;28;20214;-75
2021/05/12 00:34:11;;;;;;;3.80;2.17;;;12.20;99.90;;;;;;5112598;28;20209;-74
2021/05/12 00:36:37;;;;;;;3.90;2.83;;;12.20;99.90;;;;;;5111723;28;20440;-76
2021/05/12 00:39:07;;;;;;;4.03;2.53;;;12.20;99.90;;;;;;5112914;28;20221;-76
2021/05/12 00:41:37;;;;;;;3.30;2.23;;;12.20;99.90;;;;;;5112994;28;20528;-76
2021/05/12 00:44:14;;;;;;;8.00;3.10;;;12.20;99.90;;;;;;5112658;28;20940;-76
2021/05/12 00:46:47;;;;;;;4.63;2.27;;;12.10;99.90;;;;;;5100941;28;20907;-74
2021/05/12 00:49:14;;;;;;;7.90;2.30;;;12.10;99.90;;;;;;5107662;28;20490;-75
2021/05/12 00:51:41;;;;;;;3.20;2.00;;;12.00;99.90;;;;;;5112004;27;20420;-76
2021/05/12 00:54:07;;;;;;;4.60;2.57;;;12.00;99.90;;;;;;5111706;28;20440;-74
2021/05/12 00:56:39;;;;;;;3.20;2.00;;;11.90;99.50;;;;;;5112857;28;20424;-76
2021/05/12 00:59:06;;;;;;;3.07;2.00;;;12.00;99.50;;;;;;5109949;28;20412;-75
2021/05/12 01:01:32;;;;;;;4.77;2.50;;;12.00;98.80;;;;;;5101501;28;20467;-76
2021/05/12 01:03:58;;;;;;;5.10;2.40;;;12.00;98.50;;;;;;5102966;28;20597;-75
2021/05/12 01:06:26;;;;;;;5.47;2.40;;;12.00;98.20;;;;;;5092106;28;20535;-74
2021/05/12 01:08:52;;;;;;;2.90;1.90;;;11.90;98.10;;;;;;5096217;28;20201;-74
2021/05/12 01:11:19;;;;;;;5.53;2.00;;;11.90;98.10;;;;;;5112487;28;20420;-75
2021/05/12 01:13:45;;;;;;;4.20;2.10;;;11.90;98.00;;;;;;5109624;28;20206;-73
2021/05/12 01:16:11;;;;;;;4.30;1.83;;;11.80;98.00;;;;;;5111882;28;20435;-74
2021/05/12 01:18:38;;;;;;;3.50;2.10;;;11.80;98.00;;;;;;5110474;28;20427;-74
2021/05/12 01:21:06;;;;;;;3.47;2.07;;;11.80;97.90;;;;;;5113791;28;20875;-73
2021/05/12 01:23:37;;;;;;;3.10;2.00;;;11.70;98.00;;;;;;5117129;28;20472;-75
2021/05/12 01:26:07;;;;;;;2.93;2.07;;;11.80;97.70;;;;;;5116239;28;20423;-76
2021/05/12 01:28:36;;;;;;;6.90;2.03;;;11.70;97.70;;;;;;5106514;28;20437;-74
2021/05/12 01:31:18;;;;;;;3.83;1.80;;;11.70;97.80;;;;;;5093436;28;20928;-75
2021/05/12 01:33:45;;;;;;;3.10;1.83;;;11.70;97.90;;;;;;5102606;28;20456;-75
2021/05/12 01:36:12;;;;;;;5.33;1.80;;;11.70;97.50;;;;;;5114770;28;20416;-74
2021/05/12 01:38:41;;;;;;;2.80;1.87;;;11.60;97.60;;;;;;5111434;28;20424;-76
2021/05/12 01:41:07;;;;;;;3.60;1.70;;;11.60;97.50;;;;;;5110370;28;20473;-76
2021/05/12 01:43:34;;;;;;;3.90;2.20;;;11.60;97.70;;;;;;5111002;28;20463;-75
2021/05/12 01:46:01;;;;;;;2.60;1.97;;;11.50;97.60;;;;;;5112899;28;20487;-74
2021/05/12 01:48:27;;;;;;;3.47;2.00;;;11.60;97.90;;;;;;5126096;28;20483;-74
2021/05/12 01:50:53;;;;;;;2.60;1.77;;;11.50;97.30;;;;;;5118825;28;20464;-75
2021/05/12 01:53:19;;;;;;;6.43;2.43;;;11.50;97.50;;;;;;5113321;28;20807;-75
2021/05/12 01:55:49;;;;;;;4.17;1.70;;;11.60;97.80;;;;;;5110922;28;20436;-75
2021/05/12 01:58:16;;;;;;;3.90;2.23;;;11.60;97.50;;;;;;5111890;28;20432;-75
2021/05/12 02:00:44;;;;;;;4.00;2.00;;;11.50;97.80;;;;;;5110629;28;20428;-76
2021/05/12 02:03:10;;;;;;;5.10;2.60;;;11.50;97.90;;;;;;5111876;28;20540;-74
2021/05/12 02:05:38;;;;;;;7.57;2.40;;;11.50;97.90;;;;;;5097475;28;20577;-76
2021/05/12 02:08:06;;;;;;;5.13;2.50;;;11.50;97.70;;;;;;5111347;28;20420;-74
2021/05/12 02:10:33;;;;;;;6.20;2.80;;;11.50;97.50;;;;;;5111089;28;20936;-76
2021/05/12 02:13:01;;;;;;;9.70;3.77;;;11.50;97.60;;;;;;5099227;28;20983;-75
2021/05/12 02:15:27;;;;;;;3.90;2.40;;;11.50;97.50;;;;;;5109532;28;20435;-75
2021/05/12 02:17:53;;;;;;;5.40;2.73;;;11.50;97.40;;;;;;5111125;28;20428;-76
2021/05/12 02:20:28;;;;;;;4.27;3.30;;;11.50;97.30;;;;;;5109540;28;20432;-76
2021/05/12 02:22:54;;;;;;;9.40;3.03;;;11.50;97.10;;;;;;5110783;28;20459;-76
2021/05/12 02:25:20;;;;;;;4.90;3.53;;;11.60;97.10;;;;;;5109457;28;20424;-75
2021/05/12 02:27:46;;;;;;;8.50;3.30;;;11.60;96.70;;;;;;5111208;28;20423;-75
2021/05/12 02:30:12;;;;;;;7.03;3.50;;;11.60;96.50;;;;;;5104329;28;20226;-74
2021/05/12 02:32:38;;;;;;;5.20;2.97;;;11.50;96.40;;;;;;5103714;28;20214;-75
2021/05/12 02:35:06;;;;;;;6.80;3.23;;;11.60;96.40;;;;;;5110950;28;20635;-74
2021/05/12 02:37:32;;;;;;;6.30;3.00;;;11.60;96.40;;;;;;5109263;28;20190;-76
2021/05/12 02:39:59;;;;;;;9.03;3.53;;;11.50;96.60;;;;;;5110234;28;20442;-76
2021/05/12 02:42:25;;;;;;;8.20;3.93;;;11.60;96.70;;;;;;5110559;28;20206;-75
2021/05/12 02:44:51;;;;;;;6.53;3.70;;;11.60;96.10;;;;;;5113013;28;20811;-75
2021/05/12 02:47:17;;;;;;;7.97;3.50;;;11.60;96.00;;;;;;5101459;28;20417;-75
2021/05/12 02:49:43;;;;;;;7.00;3.60;;;11.50;96.20;;;;;;5112728;28;21172;-76
2021/05/12 02:52:08;;;;;;;5.80;3.80;;;11.60;96.20;;;;;;5109988;28;20243;-76
2021/05/12 02:54:34;;;;;;;6.57;3.60;;;11.60;96.00;;;;;;5118665;28;20515;-74
2021/05/12 02:57:02;;;;;;;6.63;3.77;;;11.50;96.00;;;;;;5119681;28;20187;-75
2021/05/12 02:59:27;;;;;;;7.53;4.27;;;11.60;96.20;;;;;;5119003;28;20422;-76
2021/05/12 03:01:53;;;;;;;8.83;5.00;;;11.50;96.10;;;;;;5115847;28;20534;-75
2021/05/12 03:04:19;;;;;;;10.10;4.37;;;11.50;96.40;;;;;;5116762;28;20314;-73
2021/05/12 03:06:44;;;;;;;8.53;4.73;;;11.50;96.40;;;;;;5118663;28;20225;-76
2021/05/12 03:09:10;;;;;;;7.80;4.30;;;11.50;96.10;;;;;;5103068;28;20285;-76
2021/05/12 03:11:36;;;;;;;7.93;4.70;;;11.60;96.00;;;;;;5110889;28;20191;-75
2021/05/12 03:14:04;;;;;;;11.40;6.03;;;11.60;95.90;;;;;;5109149;28;20448;-75
2021/05/12 03:16:30;;;;;;;7.97;4.40;;;11.50;96.00;;;;;;5110045;28;20190;-75
2021/05/12 03:18:57;;;;;;;7.73;4.80;;;11.60;96.10;;;;;;5110986;28;20424;-76
2021/05/12 03:21:29;;;;;;;12.93;5.60;;;11.60;95.90;;;;;;5110872;28;20428;-75
2021/05/12 03:23:55;;;;;;;9.57;5.10;;;11.50;95.90;;;;;;5111101;28;20447;-76
2021/05/12 03:26:21;;;;;;;8.70;4.60;;;11.60;95.90;;;;;;5108805;28;20428;-77
2021/05/12 03:28:46;;;;;;;13.80;5.30;;;11.60;95.90;;;;;;5090913;28;20437;-79
2021/05/12 03:31:13;;;;;;;10.10;4.63;;;11.60;95.90;;;;;;5104941;28;20420;-76
2021/05/12 03:33:40;;;;;;;10.53;5.67;;;11.60;96.10;;;;;;5114301;28;20488;-77
2021/05/12 03:36:06;;;;;;;12.03;6.40;;;11.60;95.90;;;;;;5113375;28;20443;-75
2021/05/12 03:38:33;;;;;;;10.07;5.40;;;11.70;95.90;;;;;;5119834;28;20428;-76
2021/05/12 03:40:59;;;;;;;10.30;5.67;;;11.70;95.90;;;;;;5107097;28;20485;-76
2021/05/12 03:43:25;;;;;;;14.13;6.00;;;11.70;95.80;;;;;;5093171;28;20510;-76
2021/05/12 03:45:51;;;;;;;12.33;6.67;;;11.70;95.80;;;;;;5106224;28;20435;-77
2021/05/12 03:48:17;;;;;;;13.70;6.63;;;11.60;95.90;;;;;;5101775;28;20476;-76
2021/05/12 03:50:43;;;;;;;14.97;6.00;;;11.70;96.00;;;;;;5099704;28;20976;-75
2021/05/12 03:53:09;;;;;;;14.40;6.73;;;11.70;95.90;;;;;;5100859;28;20251;-75
2021/05/12 03:55:35;;;;;;;16.57;7.37;;;11.70;95.90;;;;;;5113576;28;20803;-76
2021/05/12 03:58:01;;;;;;;11.27;7.00;;;11.70;95.60;;;;;;5113927;28;20577;-76
2021/05/12 04:00:27;;;;;;;12.87;6.33;;;11.70;95.60;;;;;;5113320;28;20990;-76
2021/05/12 04:02:53;;;;;;;12.20;7.13;;;11.70;95.70;;;;;;5111494;28;20472;-75
2021/05/12 04:05:19;;;;;;;16.80;7.97;;;11.80;95.70;;;;;;5113736;28;20182;-76
2021/05/12 04:07:45;;;;;;;16.53;6.70;;;11.80;95.70;;;;;;5114082;28;20650;-75
2021/05/12 04:10:12;;;;;;;18.93;6.77;;;11.80;95.70;;;;;;5113420;28;20428;-76
2021/05/12 04:12:38;;;;;;;15.30;7.40;;;11.80;95.70;;;;;;5113920;28;20185;-77
2021/05/12 04:15:05;;;;;;;20.80;8.00;;;11.80;95.70;;;;;;5114163;28;20493;-76
2021/05/12 04:17:31;;;;;;;18.43;7.77;;;11.70;95.60;;;;;;5112514;28;20427;-76
2021/05/12 04:19:57;;;;;;;13.83;7.87;;;11.70;96.00;;;;;;5113447;28;20424;-77
2021/05/12 04:22:23;;;;;;;14.43;7.10;;;11.80;95.60;;;;;;5112917;28;20641;-76
2021/05/12 04:24:49;;;;;;;18.63;7.87;;;11.80;95.50;;;;;;5113831;28;20682;-76
2021/05/12 04:27:17;;;;;;;18.67;7.30;;;11.70;95.40;;;;;;5113500;28;20455;-77
2021/05/12 04:29:43;;;;;;;15.53;7.37;;;11.80;95.60;;;;;;5113247;28;20444;-75
2021/05/12 04:32:08;;;;;;;14.60;6.67;;;11.80;95.40;;;;;;5113289;28;20436;-75
2021/05/12 04:34:34;;;;;;;12.43;6.43;;;11.80;95.40;;;;;;5111868;28;20221;-74
2021/05/12 04:37:00;;;;;;;12.40;6.70;;;11.80;95.60;;;;;;5104719;28;20300;-78
2021/05/12 04:39:26;;;;;;;15.80;7.20;;;11.80;95.30;;;;;;5093996;28;20425;-76
2021/05/12 04:41:52;;;;;;;13.23;6.90;;;11.80;95.60;;;;;;5113014;28;20475;-75
2021/05/12 04:44:18;;;;;;;9.80;5.70;;;11.90;95.50;;;;;;5111482;28;20205;-77
2021/05/12 04:46:45;;;;;;;12.93;5.93;;;11.90;95.30;;;;;;5112920;28;20594;-76
2021/05/12 04:49:12;;;;;;;14.63;6.77;;;11.90;95.10;;;;;;5097399;28;20429;-76
2021/05/12 04:51:38;;;;;;;12.07;6.53;;;11.90;94.90;;;;;;5111410;28;20957;-77
2021/05/12 04:54:04;;;;;;;12.97;6.50;;;11.90;94.90;;;;;;5112617;28;20440;-76
2021/05/12 04:56:30;;;;;;;12.50;5.90;;;11.90;94.70;;;;;;5111333;28;20412;-77
2021/05/12 04:58:56;;;;;;;13.10;6.23;;;11.80;95.30;;;;;;5112449;28;20445;-77
2021/05/12 05:01:22;;;;;;;13.30;6.23;;;11.80;95.00;;;;;;5113088;28;20421;-75
2021/05/12 05:03:49;;;;;;;12.53;6.10;;;11.90;95.00;;;;;;5112347;28;20436;-75
2021/05/12 05:06:15;;;;;;;11.87;5.17;;;11.90;94.80;;;;;;5113620;28;20187;-76
2021/05/12 05:08:40;;;;;;;11.10;6.87;;;11.80;94.00;;;;;;5114479;28;20803;-76
2021/05/12 05:11:06;;;;;;;11.50;5.80;;;11.70;93.90;;;;;;5117219;28;20432;-75
2021/05/12 05:13:32;;;;;;;13.93;6.57;;;11.60;94.40;;;;;;5122214;28;20261;-76
2021/05/12 05:15:58;;;;;;;12.97;5.50;;;11.60;94.70;;;;;;5116428;28;20191;-76
2021/05/12 05:18:24;;;;;;;11.53;5.37;;;11.70;94.70;;;;;;5114035;28;20187;-75
2021/05/12 05:20:52;;;;;;;10.87;5.70;;;11.70;94.20;;;;;;5119545;28;20190;-74
2021/05/12 05:23:18;;;;;;;8.03;4.57;;;11.70;94.20;;;;;;5115326;28;20465;-73
2021/05/12 05:25:44;;;;;;;9.37;5.17;;;11.60;94.00;;;;;;5127522;28;20435;-76
2021/05/12 05:28:09;;;;;;;10.10;4.90;;;11.60;93.60;;;;;;5110443;28;20665;-76
2021/05/12 05:30:35;;;;;;;9.50;4.33;;;11.50;93.90;;;;;;5103708;28;20246;-75
2021/05/12 05:33:01;;;;;;;9.47;4.80;;;11.50;94.20;;;;;;5096785;28;20203;-76
2021/05/12 05:35:28;;;;;;;9.60;5.03;;;11.60;94.00;;;;;;5103361;28;20279;-73
2021/05/12 05:37:54;;;;;;;13.10;5.87;;;11.50;94.00;;;;;;5101243;28;20578;-75
2021/05/12 05:40:20;;;;;;;9.20;4.90;;;11.60;94.00;;;;;;5104689;28;20520;-77
2021/05/12 05:42:45;;;;;;;7.30;4.50;;;11.60;93.90;;;;;;5091447;28;20203;-75
2021/05/12 05:45:11;;;;;;;10.07;4.60;;;11.60;94.10;;;;;;5098391;28;20425;-75
2021/05/12 05:47:37;;;;;;;9.10;4.30;;;11.70;93.80;;;;;;5111756;28;20182;-75
2021/05/12 05:50:04;;;;;;;10.93;4.63;;;11.70;93.40;;;;;;5111577;28;20424;-75
2021/05/12 05:52:30;;;;;;;9.50;4.87;;;11.70;93.60;;;;;;5097668;28;20185;-75
2021/05/12 05:54:56;;;;;;;11.10;5.47;;;11.70;94.00;;;;;;5103423;27;20781;-75
2021/05/12 05:57:22;;;;;;;9.50;4.80;;;11.70;94.20;;;;;;5105706;28;20470;-75
2021/05/12 05:59:48;;;;;;;8.20;4.40;;;11.70;94.10;;;;;;5101970;28;20218;-76
2021/05/12 06:02:13;;;;;;;8.90;4.83;;;11.80;94.10;;;;;;5092385;28;20711;-75
2021/05/12 06:04:39;;;;;;;11.30;4.43;;;11.90;93.30;;;;;;5110137;28;20590;-74
2021/05/12 06:07:05;;;;;;;7.93;4.03;;;11.90;92.90;;;;;;5110776;28;20197;-73
2021/05/12 06:09:31;;;;;;;13.17;5.10;;;11.90;93.20;;;;;;5113602;28;20204;-75
2021/05/12 06:11:56;;;;;;;7.53;4.13;;;11.80;93.00;;;;;;5112714;28;20229;-74
2021/05/12 06:14:23;;;;;;;9.20;3.90;;;11.80;93.30;;;;;;5111097;28;20678;-75
2021/05/12 06:16:50;;;;;;;8.60;4.70;;;11.80;93.60;;;;;;5109828;28;20242;-75
2021/05/12 06:19:15;;;;;;;6.73;3.70;;;11.80;93.40;;;;;;5110133;28;20440;-76
2021/05/12 06:21:41;;;;;;;8.80;4.00;;;11.80;93.10;;;;;;5111098;28;20489;-76
2021/05/12 06:24:08;;;;;;;10.87;3.80;;;11.80;93.20;;;;;;5111184;28;20285;-76
2021/05/12 06:26:36;;;;;;;7.50;3.80;;;11.80;93.10;;;;;;5111197;28;20182;-75
2021/05/12 06:29:03;;;;;;;6.57;3.80;;;11.80;93.00;;;;;;5109243;28;20440;-77
2021/05/12 06:31:29;;;;;;;8.90;4.00;;;11.80;93.00;;;;;;5110524;28;20425;-77
2021/05/12 06:33:55;;;;;;;10.30;3.97;;;11.80;93.10;;;;;;5110703;28;20440;-75
2021/05/12 06:36:21;;;;;;;9.07;3.97;;;11.80;93.20;;;;;;5110616;28;20182;-76
2021/05/12 06:38:47;;;;;;;7.10;3.50;;;11.80;93.20;;;;;;5110544;28;20465;-75
2021/05/12 06:41:13;;;;;;;7.23;3.80;;;11.80;93.00;;;;;;5111396;28;20197;-76
2021/05/12 06:43:39;;;;;;;8.47;3.77;;;11.90;93.10;;;;;;5110411;28;20877;-76
2021/05/12 06:46:05;;;;;;;9.20;3.77;;;12.00;92.70;;;;;;5110665;28;20543;-76
2021/05/12 06:48:31;;;;;;;6.27;3.20;;;12.10;92.30;;;;;;5109335;28;20429;-77
2021/05/12 06:50:56;;;;;;;5.43;3.33;;;12.00;92.10;;;;;;5111653;28;20233;-75
2021/05/12 06:53:40;;;;;;;7.27;3.73;;;12.20;91.60;;;;;;5108676;28;20238;-72
2021/05/12 06:56:06;;;;;;;7.00;3.60;;;12.20;91.30;;;;;;5109449;28;20183;-73
2021/05/12 06:58:34;;;;;;;7.57;3.50;;;12.00;91.10;;;;;;5109694;28;20509;-71
2021/05/12 07:01:01;;;;;;;7.03;3.90;;;11.90;91.60;;;;;;5110630;28;20186;-73
2021/05/12 07:03:27;;;;;;;5.83;3.57;;;12.10;91.60;;;;;;5109463;28;20500;-73
2021/05/12 07:05:54;;;;;;;6.87;3.43;;;12.20;91.60;;;;;;5109864;28;20424;-71
2021/05/12 07:08:20;;;;;;;8.83;3.60;;;12.30;90.80;;;;;;5113662;28;20993;-72
2021/05/12 07:10:46;;;;;;;8.43;3.40;;;12.30;90.70;;;;;;5118522;28;20427;-73
2021/05/12 07:13:12;;;;;;;6.10;3.30;;;12.30;91.20;;;;;;5117984;28;20451;-72
2021/05/12 07:15:38;;;;;;;5.33;3.07;;;12.40;90.80;;;;;;5114351;28;20424;-71
2021/05/12 07:18:04;;;;;;;7.60;3.30;;;12.50;90.80;;;;;;5115899;28;20210;-71
2021/05/12 07:20:30;;;;;;;9.90;3.67;;;12.60;90.20;;;;;;5117792;28;20194;-72
2021/05/12 07:23:10;;;;;;;9.87;3.37;;;12.40;89.60;;;;;;5102725;28;20460;-71
2021/05/12 07:25:37;;;;;;;5.43;2.97;;;12.30;89.90;;;;;;5091874;28;20428;-74
2021/05/12 07:28:03;;;;;;;7.93;3.40;;;12.40;90.00;;;;;;5107644;28;20564;-72
2021/05/12 07:30:29;;;;;;;7.83;3.40;;;12.40;89.70;;;;;;5096059;28;20417;-72
2021/05/12 07:32:55;;;;;;;13.03;3.63;;;12.30;90.00;;;;;;5107531;28;20947;-71
2021/05/12 07:35:21;;;;;;;7.37;2.80;;;12.40;89.90;;;;;;5093410;28;20209;-73
2021/05/12 07:37:47;;;;;;;7.10;3.37;;;12.40;89.20;;;;;;5090831;28;20510;-72
2021/05/12 07:40:13;;;;;;;5.63;3.00;;;12.40;89.30;;;;;;5096169;28;21193;-73
2021/05/12 07:42:41;;;;;;;6.03;2.73;;;12.40;89.70;;;;;;5104672;28;20463;-73
2021/05/12 07:45:10;;;;;;;14.00;7.80;;;12.40;89.90;;;;;;5102960;28;20426;-74
2021/05/12 07:47:36;;;;;;;11.47;4.60;;;12.50;89.60;;;;;;5092854;28;20436;-73
2021/05/12 07:50:04;;;;;;;8.20;3.80;;;12.30;89.50;;;;;;5090523;28;20474;-74
2021/05/12 07:52:30;;;;;;;8.70;4.70;;;12.40;89.50;;;;;;5102628;28;20432;-72
2021/05/12 07:54:55;;;;;;;7.17;3.80;;;12.50;89.70;;;;;;5088680;28;20494;-72
2021/05/12 07:57:21;;;;;;;5.60;3.17;;;12.60;89.50;;;;;;5090533;28;20214;-73
2021/05/12 07:59:47;;;;;;;5.80;3.10;;;12.40;89.50;;;;;;5098786;28;20190;-74
2021/05/12 08:02:13;;;;;;;10.67;3.20;;;12.50;89.30;;;;;;5110523;28;21040;-75
2021/05/12 08:04:38;;;;;;;7.20;3.07;;;12.50;89.30;;;;;;5110280;28;20290;-71
2021/05/12 08:07:04;;;;;;;6.77;3.10;;;12.50;88.60;;;;;;5108699;28;20919;-73
2021/05/12 08:09:30;;;;;;;6.20;3.10;;;12.40;89.00;;;;;;5088352;28;20195;-74
2021/05/12 08:11:56;;;;;;;6.63;3.80;;;12.30;89.20;;;;;;5091738;28;20436;-72
2021/05/12 08:14:22;;;;;;;6.30;3.37;;;12.20;89.50;;;;;;5110619;28;20973;-73
2021/05/12 08:16:47;;;;;;;9.07;3.60;;;12.10;90.00;;;;;;5110805;28;20186;-74
2021/05/12 08:19:14;;;;;;;5.40;2.90;;;12.00;90.60;;;;;;5112157;28;20283;-76
2021/05/12 08:21:40;;;;;;;4.97;3.17;;;12.10;90.70;;;;;;5111729;28;20194;-76
2021/05/12 08:24:07;;;;;;;7.70;3.60;;;12.10;90.40;;;;;;5112973;28;20436;-76
2021/05/12 08:26:33;;;;;;;5.87;2.70;;;12.10;90.20;;;;;;5112835;28;20485;-76
2021/05/12 08:29:00;;;;;;;8.43;3.50;;;12.00;90.40;;;;;;5112311;28;20444;-74
2021/05/12 08:31:30;;;;;;;9.07;3.77;;;12.10;90.50;;;;;;5113265;28;20455;-73
2021/05/12 08:33:56;;;;;;;8.10;3.27;;;12.10;90.00;;;;;;5103628;28;20445;-78
2021/05/12 08:36:22;;;;;;;5.10;3.13;;;12.00;90.70;;;;;;5110977;28;20430;-74
2021/05/12 08:38:47;;;;;;;5.53;2.77;;;12.10;90.50;;;;;;5114700;28;20175;-76
2021/05/12 08:41:14;;;;;;;7.13;3.40;;;12.20;90.30;;;;;;5109937;28;20524;-73
2021/05/12 08:43:41;;;;;;;6.27;2.40;;;12.20;90.20;;;;;;5104474;28;20218;-76
2021/05/12 08:46:12;;;;;;;8.33;2.93;;;12.30;89.90;;;;;;5114143;28;20431;-75
2021/05/12 08:48:39;;;;;;;6.77;2.93;;;12.30;89.90;;;;;;5113747;27;20414;-74
2021/05/12 08:51:06;;;;;;;6.77;3.20;;;12.30;89.50;;;;;;5099634;28;20811;-74
2021/05/12 08:53:32;;;;;;;6.57;3.40;;;12.20;90.10;;;;;;5112954;28;20477;-76
2021/05/12 08:56:02;;;;;;;5.30;2.67;;;12.30;89.90;;;;;;5093638;28;20494;-75
2021/05/12 08:58:28;;;;;;;6.10;3.40;;;12.40;89.00;;;;;;5093306;28;20421;-75
2021/05/12 09:00:55;;;;;;;9.73;3.40;;;12.50;89.50;;;;;;5115842;28;21061;-74
2021/05/12 09:03:21;;;;;;;7.80;2.93;;;12.60;88.70;;;;;;5119627;28;21023;-74
2021/05/12 09:05:48;;;;;;;6.87;2.57;;;12.70;87.30;;;;;;5114961;28;20512;-74
2021/05/12 09:08:14;;;;;;;5.80;3.07;;;12.70;86.80;;;;;;5119920;28;20451;-73
2021/05/12 09:10:41;;;;;;;7.10;3.23;;;12.60;86.90;;;;;;5121076;28;20526;-75
2021/05/12 09:13:07;;;;;;;10.90;3.70;;;12.60;87.10;;;;;;5116279;28;20858;-75
2021/05/12 09:15:34;;;;;;;7.83;3.27;;;12.50;87.30;;;;;;5111175;28;20423;-73
2021/05/12 09:18:05;;;;;;;6.00;2.97;;;12.60;87.80;;;;;;5113290;28;20416;-75
2021/05/12 09:20:39;;;;;;;5.20;2.93;;;12.60;87.30;;;;;;5112198;28;20432;-74
2021/05/12 09:23:14;;;;;;;7.13;3.40;;;12.70;87.10;;;;;;5105941;28;20471;-73
2021/05/12 09:25:51;;;;;;;8.90;3.13;;;12.70;86.90;;;;;;5111784;28;20484;-73
2021/05/12 09:28:18;;;;;;;5.33;3.17;;;12.90;86.60;;;;;;5112808;28;20424;-72
2021/05/12 09:30:49;;;;;;;9.30;3.40;;;12.90;86.30;;;;;;5114058;28;20408;-74
2021/05/12 09:33:36;;;;;;;4.80;2.80;;;13.00;86.30;;;;;;5115951;28;20849;-73
2021/05/12 09:36:03;;;;;;;6.20;3.67;;;13.10;85.90;;;;;;5117764;27;20495;-74
2021/05/12 09:38:31;;;;;;;5.47;2.90;;;13.10;84.30;;;;;;5111718;28;20935;-74
2021/05/12 09:41:12;;;;;;;7.47;3.13;;;13.10;84.70;;;;;;5109122;28;20481;-74
2021/05/12 09:43:50;;;;;;;10.40;3.40;;;13.00;85.00;;;;;;5115296;28;20464;-73
2021/05/12 09:46:25;;;;;;;7.30;3.47;;;13.00;85.50;;;;;;5098928;28;20422;-74
2021/05/12 09:49:00;;;;;;;8.37;3.50;;;13.20;85.00;;;;;;5112556;28;20962;-73
2021/05/12 09:51:38;;;;;;;6.20;2.90;;;13.20;84.60;;;;;;5103278;28;20424;-75
2021/05/12 09:54:10;;;;;;;10.67;3.60;;;13.20;84.10;;;;;;5106982;28;20431;-75
2021/05/12 09:56:38;;;;;;;7.43;3.47;;;13.20;84.30;;;;;;5110459;28;20456;-75
2021/05/12 09:59:07;;;;;;;7.47;3.60;;;13.40;84.30;;;;;;5096321;28;20432;-75
2021/05/12 10:01:54;;;;;;;4.03;2.60;;;13.40;83.60;;;;;;5111697;28;20456;-73
2021/05/12 10:04:20;;;;;;;5.83;3.17;;;13.40;83.60;;;;;;5111939;28;20473;-74
2021/05/12 10:06:46;;;;;;;10.87;4.27;;;13.30;83.80;;;;;;5097935;28;20845;-75
2021/05/12 10:09:26;;;;;;;6.13;3.20;;;13.10;84.40;;;;;;5097906;28;20460;-74
2021/05/12 10:12:05;;;;;;;6.60;3.10;;;13.10;85.20;;;;;;5111452;28;20207;-76
2021/05/12 10:14:34;;;;;;;4.83;3.50;;;13.20;85.20;;;;;;5109364;28;20436;-75
2021/05/12 10:17:02;;;;;;;5.87;3.40;;;13.20;85.00;;;;;;5111625;28;20432;-75
2021/05/12 10:19:28;;;;;;;6.97;3.70;;;13.40;84.90;;;;;;5100504;28;20433;-74
2021/05/12 10:21:53;;;;;;;6.23;3.40;;;13.50;84.70;;;;;;5100204;28;21208;-77
2021/05/12 10:24:19;;;;;;;6.93;3.43;;;13.60;83.80;;;;;;5111178;28;20459;-74
2021/05/12 10:26:46;;;;;;;8.03;4.17;;;13.40;83.80;;;;;;5110562;28;20243;-75
2021/05/12 10:29:14;;;;;;;7.13;3.80;;;13.50;84.10;;;;;;5111549;28;21232;-76
2021/05/12 10:31:41;;;;;;;7.80;3.63;;;13.40;84.30;;;;;;5113348;28;20423;-76
2021/05/12 10:34:06;;;;;;;5.93;3.67;;;13.50;84.60;;;;;;5110613;28;20996;-74
2021/05/12 10:36:32;;;;;;;6.57;3.63;;;13.60;83.60;;;;;;5115645;28;20417;-74
2021/05/12 10:39:03;;;;;;;10.03;3.00;;;13.60;82.40;;;;;;5115661;28;20557;-74
2021/05/12 10:41:46;;;;;;;4.87;3.00;;;13.60;81.90;;;;;;5108317;28;20190;-74
2021/05/12 10:44:23;;;;;;;10.67;3.43;;;13.60;82.10;;;;;;5109536;28;20470;-76
2021/05/12 10:47:00;;;;;;;9.70;3.43;;;13.50;82.40;;;;;;5090902;28;20453;-72
2021/05/12 10:49:26;;;;;;;8.10;3.57;;;13.40;82.70;;;;;;5108394;28;20948;-74
2021/05/12 10:51:53;;;;;;;8.30;3.33;;;13.30;83.40;;;;;;5100435;28;20777;-74
2021/05/12 10:54:51;;;;;;;8.20;3.77;;;13.20;83.70;;;;;;5107127;28;20519;-77
2021/05/12 10:57:45;;;;;;;4.70;2.97;;;12.90;84.10;;;;;;5096235;28;20421;-75
2021/05/12 11:00:13;;;;;;;7.33;3.27;;;12.80;85.30;;;;;;5109993;28;21100;-73
2021/05/12 11:02:51;;;;;;;7.53;3.10;;;13.00;85.00;;;;;;5098280;28;20471;-74
2021/05/12 11:05:20;;;;;;;6.63;3.20;;;13.10;84.30;;;;;;5110850;28;20424;-76
2021/05/12 11:08:15;;;;;;;12.40;3.90;;;13.10;84.30;;;;;;5098523;28;20431;-74
2021/05/12 11:10:50;;;;;;;7.27;3.60;;;13.20;83.80;;;;;;5110365;28;20408;-74
2021/05/12 11:13:21;;;;;;;5.77;4.00;;;13.40;82.50;;;;;;5111047;28;20447;-73
2021/05/12 11:15:55;;;;;;;9.00;4.00;;;13.40;81.70;;;;;;5110715;28;20565;-74
2021/05/12 11:18:36;;;;;;;4.50;2.90;;;13.30;82.40;;;;;;5109468;28;20519;-74
2021/05/12 11:21:33;;;;;;;8.53;3.40;;;13.10;83.00;;;;;;5104798;28;20428;-73
2021/05/12 11:24:08;;;;;;;6.70;3.30;;;13.10;82.80;;;;;;5095943;28;20478;-74
2021/05/12 11:31:56;;;;;;;5.43;2.97;;;13.40;81.20;;;;;;5110912;28;20442;-75
2021/05/12 11:34:22;;;;;;;6.83;3.60;;;13.40;81.70;;;;;;5110915;28;20436;-73
2021/05/12 11:36:48;;;;;;;5.63;3.23;;;13.30;81.40;;;;;;5105244;28;20421;-75
2021/05/12 11:39:14;;;;;;;6.83;3.40;;;13.30;81.40;;;;;;5103951;28;20928;-73
2021/05/12 11:41:40;;;;;;;7.13;3.30;;;13.50;81.50;;;;;;5094438;28;20542;-75
2021/05/12 11:44:07;;;;;;;9.80;3.13;;;13.70;80.80;;;;;;5107447;28;20202;-75
2021/05/12 11:46:34;;;;;;;6.07;3.40;;;13.70;80.80;;;;;;5098455;28;20472;-73
2021/05/12 11:49:05;;;;;;;6.53;3.20;;;13.70;81.10;;;;;;5112396;28;20460;-74
2021/05/12 11:51:36;;;;;;;10.30;3.70;;;14.00;81.50;;;;;;5099858;28;20936;-73
2021/05/12 11:54:05;;;;;;;3.93;2.60;;;14.20;81.10;;;;;;5116701;28;20936;-74
2021/05/12 11:56:31;;;;;;;5.83;2.97;;;14.50;79.90;;;;;;5114995;28;20448;-72
2021/05/12 11:59:00;;;;;;;3.80;2.90;;;14.70;78.00;;;;;;5112894;28;20443;-74
2021/05/12 12:01:28;;;;;;;9.13;3.40;;;14.70;78.00;;;;;;5113626;28;20519;-75
2021/05/12 12:04:13;;;;;;;5.37;3.83;;;14.40;77.70;;;;;;5099988;28;20548;-73
2021/05/12 12:06:44;;;;;;;4.10;3.00;;;14.20;79.30;;;;;;5113401;28;20424;-73
2021/05/12 12:09:11;;;;;;;4.33;3.20;;;14.30;79.70;;;;;;5113099;28;20774;-73
2021/05/12 12:11:38;;;;;;;5.00;3.13;;;14.30;80.20;;;;;;5113106;28;20412;-75
2021/05/12 12:14:06;;;;;;;5.93;3.17;;;14.40;78.10;;;;;;5113630;28;20527;-73
2021/05/12 12:16:34;;;;;;;5.53;2.70;;;14.60;79.90;;;;;;5113319;28;20425;-74
2021/05/12 12:19:07;;;;;;;5.83;3.10;;;14.90;78.60;;;;;;5112696;28;20533;-74
2021/05/12 12:21:34;;;;;;;4.40;3.03;;;15.00;76.10;;;;;;5114117;28;20409;-74
2021/05/12 12:24:10;;;;;;;8.13;3.33;;;15.00;75.50;;;;;;5113540;28;20561;-74
2021/05/12 12:26:36;;;;;;;7.77;3.60;;;14.80;76.40;;;;;;5113859;28;20491;-76
2021/05/12 12:29:06;;;;;;;6.60;2.90;;;14.80;77.40;;;;;;5113825;28;20483;-73
2021/05/12 12:31:51;;;;;;;4.83;3.83;;;14.90;76.10;;;;;;5113565;28;20428;-73
2021/05/12 12:34:19;;;;;;;4.93;2.87;;;14.80;76.50;;;;;;5112406;28;20452;-74
2021/05/12 12:36:57;;;;;;;5.13;2.73;;;14.70;77.10;;;;;;5112533;28;20436;-74
2021/05/12 12:39:46;;;;;;;8.20;3.63;;;14.70;78.30;;;;;;5114004;28;20456;-72
2021/05/12 12:42:15;;;;;;;3.33;2.40;;;14.60;78.90;;;;;;5116273;28;20970;-75
2021/05/12 12:44:43;;;;;;;7.50;3.07;;;14.70;79.00;;;;;;5102725;28;20997;-73
2021/05/12 12:47:15;;;;;;;7.50;3.13;;;14.60;78.10;;;;;;5123170;28;20416;-73
2021/05/12 12:50:00;;;;;;;8.97;3.40;;;14.40;78.70;;;;;;5124287;28;20974;-74
2021/05/12 12:52:38;;;;;;;6.30;3.60;;;14.50;81.40;;;;;;5102931;28;20437;-76
2021/05/12 12:55:19;;;;;;;7.97;3.10;;;14.50;81.10;;;;;;5115920;28;20444;-73
2021/05/12 12:58:08;;;;;;;8.53;4.63;;;14.60;79.60;;;;;;5119091;28;20500;-72